createdAt,value
2022-10-24T00:01:11.525Z,66.57
2022-10-24T00:03:40.252Z,66.38
2022-10-24T00:06:07.784Z,66.60
2022-10-24T00:08:35.205Z,66.58
2022-10-24T00:11:02.616Z,66.61
2022-10-24T00:13:30.036Z,66.90
2022-10-24T00:15:57.435Z,66.85
2022-10-24T00:18:24.839Z,66.77
2022-10-24T00:20:53.516Z,66.86
2022-10-24T00:23:20.922Z,66.63
2022-10-24T00:25:48.545Z,66.71
2022-10-24T00:28:15.958Z,66.66
2022-10-24T00:30:43.340Z,66.79
2022-10-24T00:33:10.753Z,67.11
2022-10-24T00:35:38.147Z,67.00
2022-10-24T00:38:06.835Z,67.30
2022-10-24T00:40:34.236Z,67.24
2022-10-24T00:43:01.688Z,66.99
2022-10-24T00:45:40.037Z,67.21
2022-10-24T00:48:28.848Z,67.35
2022-10-24T00:50:57.765Z,67.60
2022-10-24T00:53:26.654Z,67.37
2022-10-24T00:55:56.748Z,67.49
2022-10-24T00:58:25.446Z,67.36
2022-10-24T01:00:52.895Z,67.54
2022-10-24T01:03:20.305Z,67.35
2022-10-24T01:05:56.390Z,67.58
2022-10-24T01:08:28.950Z,67.71
2022-10-24T01:10:58.952Z,67.67
2022-10-24T01:13:32.063Z,67.56
2022-10-24T01:16:03.323Z,67.53
2022-10-24T01:18:32.730Z,67.60
2022-10-24T01:21:15.308Z,67.67
2022-10-24T01:24:27.313Z,67.20
2022-10-24T01:27:06.723Z,67.29
2022-10-24T01:29:42.129Z,67.12
2022-10-24T01:32:12.204Z,67.41
2022-10-24T01:34:42.333Z,67.23
2022-10-24T01:37:10.767Z,67.44
2022-10-24T01:39:49.300Z,67.56
2022-10-24T01:42:17.718Z,67.19
2022-10-24T01:44:48.170Z,67.22
2022-10-24T01:47:16.991Z,67.10
2022-10-24T01:49:47.247Z,67.53
2022-10-24T01:52:15.285Z,67.40
2022-10-24T01:54:42.699Z,67.50
2022-10-24T01:57:10.505Z,67.57
2022-10-24T01:59:42.883Z,67.39
2022-10-24T02:02:13.500Z,67.40
2022-10-24T02:04:42.619Z,67.40
2022-10-24T02:07:10.073Z,67.51
2022-10-24T02:09:37.581Z,67.46
2022-10-24T02:12:05.125Z,67.57
2022-10-24T02:14:34.578Z,67.79
2022-10-24T02:17:02.117Z,67.79
2022-10-24T02:19:30.822Z,67.75
2022-10-24T02:22:02.157Z,67.76
2022-10-24T02:24:30.204Z,67.79
2022-10-24T02:26:58.974Z,67.67
2022-10-24T02:29:27.816Z,67.69
2022-10-24T02:31:56.100Z,67.68
2022-10-24T02:34:23.777Z,67.48
2022-10-24T02:36:54.003Z,67.66
2022-10-24T02:39:21.396Z,67.49
2022-10-24T02:41:48.793Z,67.87
2022-10-24T02:44:16.481Z,67.64
2022-10-24T02:46:43.906Z,67.87
2022-10-24T02:49:11.504Z,67.61
2022-10-24T02:51:40.007Z,67.54
2022-10-24T02:54:08.721Z,67.54
2022-10-24T02:56:36.136Z,67.81
2022-10-24T02:59:03.595Z,67.94
2022-10-24T03:01:31.093Z,67.95
2022-10-24T03:03:58.597Z,67.81
2022-10-24T03:06:26.000Z,67.65
2022-10-24T03:08:53.468Z,67.51
2022-10-24T03:11:22.176Z,67.72
2022-10-24T03:13:49.575Z,67.72
2022-10-24T03:16:16.989Z,68.19
2022-10-24T03:18:44.400Z,67.68
2022-10-24T03:21:11.818Z,67.89
2022-10-24T03:23:39.215Z,67.70
2022-10-24T03:26:07.075Z,67.76
2022-10-24T03:28:36.914Z,67.80
2022-10-24T03:31:04.402Z,67.57
2022-10-24T03:33:31.922Z,67.74
2022-10-24T03:35:59.985Z,67.63
2022-10-24T03:38:27.462Z,67.77
2022-10-24T03:40:54.856Z,67.55
2022-10-24T03:43:22.242Z,67.72
2022-10-24T03:45:50.947Z,67.49
2022-10-24T03:48:18.357Z,67.56
2022-10-24T03:50:46.732Z,67.82
2022-10-24T03:53:14.129Z,67.52
2022-10-24T03:55:41.621Z,67.77
2022-10-24T03:58:09.027Z,67.91
2022-10-24T04:00:40.108Z,67.81
2022-10-24T04:03:09.637Z,67.88
2022-10-24T04:05:37.123Z,67.43
2022-10-24T04:08:04.757Z,67.50
2022-10-24T04:10:32.152Z,67.73
2022-10-24T04:12:59.559Z,67.55
2022-10-24T04:15:27.025Z,67.55
2022-10-24T04:17:54.430Z,67.46
2022-10-24T04:20:23.355Z,67.31
2022-10-24T04:22:50.765Z,67.50
2022-10-24T04:25:18.353Z,67.50
2022-10-24T04:27:46.323Z,67.43
2022-10-24T04:30:16.564Z,67.32
2022-10-24T04:32:44.714Z,67.18
2022-10-24T04:35:12.345Z,67.06
2022-10-24T04:37:41.042Z,67.07
2022-10-24T04:40:09.262Z,67.21
2022-10-24T04:42:36.674Z,67.12
2022-10-24T04:45:04.161Z,67.44
2022-10-24T04:47:31.570Z,67.42
2022-10-24T04:49:58.982Z,67.29
2022-10-24T04:52:26.404Z,67.17
2022-10-24T04:54:55.126Z,67.92
2022-10-24T04:57:22.543Z,67.51
2022-10-24T04:59:49.978Z,67.56
2022-10-24T05:02:17.566Z,67.40
2022-10-24T05:04:45.036Z,67.48
2022-10-24T05:07:12.447Z,67.58
2022-10-24T05:09:39.882Z,67.61
2022-10-24T05:12:08.641Z,67.32
2022-10-24T05:14:36.105Z,67.49
2022-10-24T05:17:03.504Z,67.52
2022-10-24T05:19:31.055Z,67.62
2022-10-24T05:21:58.505Z,67.35
2022-10-24T05:24:25.907Z,67.38
2022-10-24T05:26:53.305Z,67.37
2022-10-24T05:29:21.995Z,67.34
2022-10-24T05:31:49.530Z,67.24
2022-10-24T05:34:16.923Z,67.21
2022-10-24T05:36:44.329Z,67.22
2022-10-24T05:39:11.733Z,66.98
2022-10-24T05:41:43.292Z,67.02
2022-10-24T05:44:13.753Z,66.93
2022-10-24T05:46:42.449Z,67.21
2022-10-24T05:49:09.854Z,67.08
2022-10-24T05:51:37.273Z,67.14
2022-10-24T05:54:04.877Z,67.21
2022-10-24T05:56:33.056Z,67.10
2022-10-24T05:59:00.443Z,67.36
2022-10-24T06:01:27.958Z,67.37
2022-10-24T06:03:56.669Z,67.19
2022-10-24T06:06:24.193Z,67.61
2022-10-24T06:08:51.647Z,67.32
2022-10-24T06:11:19.157Z,67.64
2022-10-24T06:13:46.614Z,68.11
2022-10-24T06:16:14.036Z,68.08
2022-10-24T06:18:41.453Z,68.33
2022-10-24T06:21:10.514Z,68.51
2022-10-24T06:23:37.903Z,68.24
2022-10-24T06:26:08.433Z,68.10
2022-10-24T06:28:35.901Z,68.03
2022-10-24T06:31:03.796Z,67.99
2022-10-24T06:33:31.213Z,68.04
2022-10-24T06:36:00.177Z,67.99
2022-10-24T06:38:28.889Z,68.17
2022-10-24T06:40:56.295Z,68.80
2022-10-24T06:43:23.686Z,69.01
2022-10-24T06:45:51.109Z,69.16
2022-10-24T06:48:18.568Z,69.29
2022-10-24T06:50:45.988Z,69.19
2022-10-24T06:53:13.448Z,69.20
2022-10-24T06:55:42.156Z,69.08
2022-10-24T06:58:09.590Z,69.34
2022-10-24T07:00:39.400Z,69.23
2022-10-24T07:03:06.818Z,69.42
2022-10-24T07:05:34.233Z,69.89
2022-10-24T07:08:01.628Z,70.79
2022-10-24T07:10:29.035Z,70.58
2022-10-24T07:12:57.742Z,70.08
2022-10-24T07:15:25.142Z,70.12
2022-10-24T07:17:52.533Z,70.05
2022-10-24T07:20:19.968Z,69.70
2022-10-24T07:22:47.640Z,69.45
2022-10-24T07:25:15.383Z,69.53
2022-10-24T07:27:42.902Z,69.39
2022-10-24T07:30:16.286Z,69.58
2022-10-24T07:32:43.942Z,69.36
2022-10-24T07:35:12.728Z,69.27
2022-10-24T07:37:40.131Z,69.50
2022-10-24T07:40:08.629Z,69.63
2022-10-24T07:42:36.067Z,69.67
2022-10-24T07:45:04.355Z,69.60
2022-10-24T07:47:33.051Z,69.72
2022-10-24T07:50:00.458Z,69.55
2022-10-24T07:52:27.861Z,69.84
2022-10-24T07:54:55.363Z,69.77
2022-10-24T07:57:22.880Z,69.67
2022-10-24T07:59:50.292Z,69.80
2022-10-24T08:02:18.025Z,69.52
2022-10-24T08:04:46.703Z,69.71
2022-10-24T08:07:14.124Z,69.93
2022-10-24T08:09:41.842Z,69.79
2022-10-24T08:12:09.256Z,70.24
2022-10-24T08:14:37.593Z,70.01
2022-10-24T08:17:05.521Z,69.71
2022-10-24T08:19:32.934Z,69.71
2022-10-24T08:22:01.704Z,69.65
2022-10-24T08:24:29.207Z,69.56
2022-10-24T08:26:56.690Z,69.58
2022-10-24T08:29:25.117Z,69.71
2022-10-24T08:31:53.029Z,69.50
2022-10-24T08:34:20.541Z,69.47
2022-10-24T08:36:48.453Z,69.31
2022-10-24T08:39:17.163Z,69.64
2022-10-24T08:41:46.777Z,69.60
2022-10-24T08:44:17.884Z,69.45
2022-10-24T08:46:49.016Z,69.57
2022-10-24T08:49:20.480Z,69.33
2022-10-24T08:51:49.022Z,69.55
2022-10-24T08:54:22.712Z,69.25
2022-10-24T08:56:50.198Z,69.24
2022-10-24T08:59:17.602Z,69.44
2022-10-24T09:01:46.543Z,69.28
2022-10-24T09:04:15.069Z,69.16
2022-10-24T09:06:42.473Z,69.47
2022-10-24T09:09:13.519Z,69.64
2022-10-24T09:11:47.662Z,69.40
2022-10-24T09:14:15.876Z,69.37
2022-10-24T09:16:43.366Z,69.42
2022-10-24T09:19:11.814Z,69.45
2022-10-24T09:21:39.487Z,69.33
2022-10-24T09:24:07.363Z,69.61
2022-10-24T09:26:34.754Z,69.40
2022-10-24T09:29:03.449Z,69.82
2022-10-24T09:31:30.852Z,69.84
2022-10-24T09:34:00.383Z,69.38
2022-10-24T09:36:29.987Z,69.53
2022-10-24T09:38:57.427Z,69.18
2022-10-24T09:41:25.515Z,69.41
2022-10-24T09:43:54.977Z,69.34
2022-10-24T09:46:24.721Z,69.15
2022-10-24T09:48:56.536Z,69.55
2022-10-24T09:51:29.737Z,69.44
2022-10-24T09:54:08.823Z,69.40
2022-10-24T09:56:37.577Z,69.39
2022-10-24T09:59:19.569Z,69.51
2022-10-24T10:01:49.415Z,69.30
2022-10-24T10:04:17.698Z,69.22
2022-10-24T10:06:45.507Z,69.26
2022-10-24T10:09:13.440Z,69.41
2022-10-24T10:11:49.469Z,69.35
2022-10-24T10:14:29.631Z,69.24
2022-10-24T10:17:02.386Z,69.32
2022-10-24T10:19:29.843Z,69.53
2022-10-24T10:21:59.605Z,69.43
2022-10-24T10:24:28.582Z,69.27
2022-10-24T10:26:56.047Z,69.45
2022-10-24T10:29:24.186Z,69.29
2022-10-24T10:31:54.069Z,69.48
2022-10-24T10:34:26.826Z,69.54
2022-10-24T10:37:00.984Z,69.55
2022-10-24T10:39:49.462Z,69.37
2022-10-24T10:42:18.516Z,69.32
2022-10-24T10:44:53.476Z,69.18
2022-10-24T10:47:27.551Z,69.39
2022-10-24T10:49:58.260Z,69.22
2022-10-24T10:52:26.553Z,69.18
2022-10-24T10:55:05.223Z,69.50
2022-10-24T10:57:35.243Z,69.17
2022-10-24T11:00:07.717Z,69.44
2022-10-24T11:02:59.366Z,69.15
2022-10-24T11:05:34.442Z,69.56
2022-10-24T11:08:07.166Z,69.09
2022-10-24T11:10:35.922Z,69.34
2022-10-24T11:13:04.655Z,68.93
2022-10-24T11:15:32.694Z,69.01
2022-10-24T11:18:01.913Z,69.38
2022-10-24T11:20:32.268Z,69.38
2022-10-24T11:23:01.165Z,69.47
2022-10-24T11:25:31.719Z,69.28
2022-10-24T11:28:02.381Z,69.49
2022-10-24T11:30:46.157Z,69.09
2022-10-24T11:33:16.893Z,69.26
2022-10-24T11:35:56.666Z,69.05
2022-10-24T11:38:24.332Z,69.10
2022-10-24T11:40:57.774Z,69.19
2022-10-24T11:43:28.779Z,69.00
2022-10-24T11:45:57.498Z,69.16
2022-10-24T11:48:26.204Z,68.86
2022-10-24T11:50:56.413Z,70.16
2022-10-24T11:53:43.063Z,69.69
2022-10-24T11:56:13.420Z,69.90
2022-10-24T11:58:48.535Z,69.54
2022-10-24T12:01:29.063Z,69.47
2022-10-24T12:04:07.798Z,69.49
2022-10-24T12:06:56.420Z,69.25
2022-10-24T12:09:34.496Z,69.28
2022-10-24T12:12:08.606Z,69.32
2022-10-24T12:14:51.762Z,69.33
2022-10-24T12:17:29.448Z,69.25
2022-10-24T12:19:56.872Z,68.94
2022-10-24T12:25:04.717Z,69.17
2022-10-24T12:27:35.538Z,68.87
2022-10-24T12:30:04.273Z,70.09
2022-10-24T12:32:37.619Z,69.14
2022-10-24T12:35:46.569Z,69.19
2022-10-24T12:39:08.879Z,69.53
2022-10-24T12:41:39.072Z,69.25
2022-10-24T12:44:41.787Z,69.01
2022-10-24T12:47:30.159Z,69.10
2022-10-24T12:49:58.121Z,68.92
2022-10-24T12:52:50.876Z,68.96
2022-10-24T12:55:33.478Z,69.04
2022-10-24T12:58:05.134Z,68.58
2022-10-24T13:00:33.638Z,68.73
2022-10-24T13:03:06.331Z,68.53
2022-10-24T13:05:40.912Z,68.30
2022-10-24T13:08:14.030Z,68.31
2022-10-24T13:10:46.202Z,68.28
2022-10-24T13:13:23.268Z,68.19
2022-10-24T13:15:52.644Z,68.25
2022-10-24T13:18:27.896Z,68.18
2022-10-24T13:21:12.662Z,68.28
2022-10-24T13:23:42.316Z,68.51
2022-10-24T13:26:09.715Z,67.89
2022-10-24T13:28:40.373Z,67.89
2022-10-24T13:31:47.421Z,68.08
2022-10-24T13:34:25.315Z,67.88
2022-10-24T13:36:58.990Z,67.85
2022-10-24T13:39:28.486Z,68.20
2022-10-24T13:42:00.321Z,68.20
2022-10-24T13:44:30.473Z,67.68
2022-10-24T13:47:00.836Z,68.13
2022-10-24T13:49:29.583Z,67.99
2022-10-24T13:51:57.722Z,67.95
2022-10-24T13:54:27.278Z,67.71
2022-10-24T13:56:57.181Z,67.98
2022-10-24T13:59:32.812Z,68.02
2022-10-24T14:02:01.782Z,67.77
2022-10-24T14:04:29.314Z,67.86
2022-10-24T14:07:01.542Z,67.68
2022-10-24T14:09:28.925Z,67.95
2022-10-24T14:11:57.939Z,67.93
2022-10-24T14:14:28.799Z,67.91
2022-10-24T14:17:08.013Z,67.88
2022-10-24T14:19:39.263Z,68.03
2022-10-24T14:22:19.128Z,67.77
2022-10-24T14:24:46.724Z,67.59
2022-10-24T14:27:14.218Z,67.87
2022-10-24T14:29:41.635Z,68.14
2022-10-24T14:32:14.570Z,67.89
2022-10-24T14:34:41.967Z,67.97
2022-10-24T14:37:18.054Z,68.18
2022-10-24T14:39:45.465Z,68.31
2022-10-24T14:42:14.474Z,68.32
2022-10-24T14:44:41.929Z,67.82
2022-10-24T14:47:21.239Z,68.15
2022-10-24T14:49:49.645Z,68.04
2022-10-24T14:52:18.710Z,68.08
2022-10-24T14:54:53.417Z,67.90
2022-10-24T14:57:21.564Z,67.84
2022-10-24T14:59:50.278Z,67.94
2022-10-24T15:02:22.048Z,68.74
2022-10-24T15:04:51.235Z,68.73
2022-10-24T15:07:28.633Z,68.15
2022-10-24T15:09:57.143Z,68.28
2022-10-24T15:12:27.339Z,68.09
2022-10-24T15:14:56.549Z,68.02
2022-10-24T15:17:32.457Z,67.97
2022-10-24T15:20:01.450Z,68.30
2022-10-24T15:22:29.765Z,68.25
2022-10-24T15:24:57.732Z,68.40
2022-10-24T15:27:27.649Z,68.53
2022-10-24T15:29:55.149Z,68.37
2022-10-24T15:32:22.609Z,68.43
2022-10-24T15:34:54.490Z,68.69
2022-10-24T15:37:23.217Z,68.67
2022-10-24T15:39:50.642Z,68.57
2022-10-24T15:42:20.120Z,68.84
2022-10-24T15:44:49.900Z,68.72
2022-10-24T15:47:17.348Z,68.90
2022-10-24T15:49:44.745Z,68.68
2022-10-24T15:52:13.956Z,68.63
2022-10-24T15:54:42.041Z,68.68
2022-10-24T15:57:10.652Z,68.50
2022-10-24T15:59:38.062Z,68.59
2022-10-24T16:02:05.575Z,68.43
2022-10-24T16:04:33.333Z,68.64
2022-10-24T16:07:02.253Z,68.46
2022-10-24T16:09:31.073Z,68.83
2022-10-24T16:11:58.517Z,68.45
2022-10-24T16:14:26.590Z,68.75
2022-10-24T16:16:54.859Z,69.18
2022-10-24T16:19:22.276Z,69.06
2022-10-24T16:21:49.683Z,69.13
2022-10-24T16:24:18.325Z,69.49
2022-10-24T16:26:47.054Z,69.53
2022-10-24T16:29:14.465Z,69.30
2022-10-24T16:31:42.213Z,69.50
2022-10-24T16:34:09.702Z,69.81
2022-10-24T16:36:37.113Z,69.72
2022-10-24T16:39:04.646Z,69.87
2022-10-24T16:41:32.051Z,69.86
2022-10-24T16:44:00.954Z,69.75
2022-10-24T16:46:28.474Z,70.25
2022-10-24T16:48:56.049Z,70.08
2022-10-24T16:51:25.042Z,69.94
2022-10-24T16:53:52.471Z,70.05
2022-10-24T16:56:19.889Z,70.19
2022-10-24T16:58:47.320Z,70.21
2022-10-24T17:01:16.239Z,70.18
2022-10-24T17:03:44.745Z,70.32
2022-10-24T17:06:12.287Z,70.24
2022-10-24T17:08:40.661Z,70.28
2022-10-24T17:11:25.781Z,70.52
2022-10-24T17:13:55.537Z,70.14
2022-10-24T17:16:24.514Z,70.32
2022-10-24T17:19:05.567Z,70.22
2022-10-24T17:21:41.299Z,70.23
2022-10-24T17:24:11.145Z,70.42
2022-10-24T17:26:38.627Z,70.08
2022-10-24T17:29:08.137Z,70.28
2022-10-24T17:31:36.982Z,70.16
2022-10-24T17:34:04.984Z,70.12
2022-10-24T17:36:34.530Z,70.13
2022-10-24T17:39:09.208Z,69.95
2022-10-24T17:41:39.143Z,70.33
2022-10-24T17:44:07.285Z,70.50
2022-10-24T17:46:35.028Z,70.56
2022-10-24T17:49:03.709Z,70.12
2022-10-24T17:51:36.923Z,70.16
2022-10-24T17:54:05.786Z,70.08
2022-10-24T17:56:33.215Z,70.56
2022-10-24T17:59:00.644Z,70.56
2022-10-24T18:01:28.133Z,70.29
2022-10-24T18:03:55.609Z,70.35
2022-10-24T18:06:24.336Z,70.63
2022-10-24T18:08:53.647Z,70.33
2022-10-24T18:11:21.066Z,70.33
2022-10-24T18:13:48.507Z,70.20
2022-10-24T18:16:17.869Z,70.17
2022-10-24T18:18:46.046Z,70.19
2022-10-24T18:21:14.823Z,70.02
2022-10-24T18:23:43.626Z,70.36
2022-10-24T18:26:12.047Z,70.13
2022-10-24T18:28:39.708Z,69.91
2022-10-24T18:31:08.971Z,70.08
2022-10-24T18:33:36.391Z,70.06
2022-10-24T18:36:08.241Z,70.00
2022-10-24T18:38:35.898Z,70.03
2022-10-24T18:41:05.030Z,69.96
2022-10-24T18:43:32.648Z,70.04
2022-10-24T18:46:00.434Z,70.32
2022-10-24T18:48:28.203Z,70.00
2022-10-24T18:50:55.864Z,70.07
2022-10-24T18:53:24.003Z,70.10
2022-10-24T18:55:51.812Z,70.36
2022-10-24T18:58:20.765Z,69.97
2022-10-24T19:00:48.517Z,70.09
2022-10-24T19:03:21.587Z,69.75
2022-10-24T19:05:53.815Z,70.28
2022-10-24T19:08:23.410Z,69.96
2022-10-24T19:10:53.794Z,70.37
2022-10-24T19:13:22.808Z,70.15
2022-10-24T19:15:53.060Z,69.98
2022-10-24T19:18:20.472Z,70.08
2022-10-24T19:20:47.887Z,70.10
2022-10-24T19:23:15.845Z,70.11
2022-10-24T19:25:43.287Z,70.21
2022-10-24T19:28:11.346Z,69.84
2022-10-24T19:30:42.196Z,69.92
2022-10-24T19:33:09.621Z,70.03
2022-10-24T19:35:37.181Z,70.10
2022-10-24T19:38:04.617Z,69.75
2022-10-24T19:40:32.051Z,70.01
2022-10-24T19:42:59.469Z,69.85
2022-10-24T19:45:26.881Z,69.96
2022-10-24T19:47:56.285Z,69.75
2022-10-24T19:50:23.698Z,69.78
2022-10-24T19:52:51.102Z,69.91
2022-10-24T19:55:18.492Z,69.97
2022-10-24T19:57:46.155Z,70.17
2022-10-24T20:00:14.555Z,70.33
2022-10-24T20:02:42.648Z,70.14
2022-10-24T20:05:11.501Z,70.11
2022-10-24T20:07:38.918Z,70.04
2022-10-24T20:10:07.292Z,70.07
2022-10-24T20:12:34.712Z,70.05
2022-10-24T20:15:02.191Z,69.71
2022-10-24T20:17:29.688Z,69.75
2022-10-24T20:19:57.115Z,69.88
2022-10-24T20:22:25.832Z,69.81
2022-10-24T20:24:53.222Z,69.86
2022-10-24T20:27:23.747Z,69.54
2022-10-24T20:29:52.184Z,69.61
2022-10-24T20:32:20.182Z,69.55
2022-10-24T20:34:47.587Z,69.64
2022-10-24T20:37:15.053Z,69.35
2022-10-24T20:39:43.788Z,69.64
2022-10-24T20:42:11.410Z,69.65
2022-10-24T20:44:38.816Z,69.60
2022-10-24T20:47:06.229Z,69.65
2022-10-24T20:49:33.630Z,69.44
2022-10-24T20:52:01.113Z,69.86
2022-10-24T20:54:28.563Z,69.73
2022-10-24T20:56:57.297Z,69.61
2022-10-24T20:59:24.724Z,69.46
2022-10-24T21:01:52.220Z,69.78
2022-10-24T21:04:20.826Z,69.52
2022-10-24T21:06:48.478Z,69.43
2022-10-24T21:09:15.897Z,69.71
2022-10-24T21:11:43.382Z,69.62
2022-10-24T21:14:12.837Z,69.65
2022-10-24T21:16:40.246Z,69.79
2022-10-24T21:19:07.652Z,69.43
2022-10-24T21:21:35.036Z,69.61
2022-10-24T21:24:05.843Z,69.48
2022-10-24T21:26:37.818Z,69.35
2022-10-24T21:29:15.024Z,69.30
2022-10-24T21:31:53.910Z,69.54
2022-10-24T21:34:21.557Z,69.51
2022-10-24T21:36:48.967Z,69.46
2022-10-24T21:39:16.765Z,69.29
2022-10-24T21:41:44.249Z,69.22
2022-10-24T21:44:11.857Z,69.27
2022-10-24T21:46:39.271Z,69.25
2022-10-24T21:49:07.997Z,69.19
2022-10-24T21:51:36.316Z,69.16
2022-10-24T21:54:04.959Z,69.04
2022-10-24T21:56:33.786Z,68.80
2022-10-24T22:01:31.678Z,68.78
2022-10-24T22:03:59.556Z,68.62
2022-10-24T22:06:28.924Z,68.53
2022-10-24T22:08:56.623Z,68.79
2022-10-24T22:11:24.834Z,68.76
2022-10-24T22:13:52.535Z,68.82
2022-10-24T22:16:20.812Z,68.73
2022-10-24T22:18:48.262Z,68.59
2022-10-24T22:21:18.610Z,68.64
2022-10-24T22:23:47.281Z,68.87
2022-10-24T22:26:14.692Z,68.80
2022-10-24T22:28:42.230Z,69.13
2022-10-24T22:31:10.370Z,68.80
2022-10-24T22:33:38.544Z,68.90
2022-10-24T22:36:08.802Z,68.90
2022-10-24T22:38:36.640Z,69.22
2022-10-24T22:41:05.798Z,69.53
2022-10-24T22:43:33.930Z,69.51
2022-10-24T22:46:05.319Z,69.61
2022-10-24T22:48:33.983Z,69.98
2022-10-24T22:51:01.527Z,70.29
2022-10-24T22:53:30.650Z,70.23
2022-10-24T22:56:11.571Z,70.74
2022-10-24T22:58:39.435Z,71.16
2022-10-24T23:01:13.609Z,70.93
2022-10-24T23:03:46.013Z,71.05
2022-10-24T23:06:14.744Z,71.19
2022-10-24T23:08:43.799Z,71.22
2022-10-24T23:11:13.269Z,71.11
2022-10-24T23:13:41.090Z,71.22
2022-10-24T23:16:11.505Z,71.31
2022-10-24T23:18:39.295Z,71.25
2022-10-24T23:21:12.126Z,71.39
2022-10-24T23:23:39.918Z,71.66
2022-10-24T23:26:09.879Z,71.56
2022-10-24T23:28:40.484Z,71.74
2022-10-24T23:31:08.421Z,71.58
2022-10-24T23:33:36.366Z,71.51
2022-10-24T23:36:04.223Z,71.70
2022-10-24T23:38:32.534Z,71.39
2022-10-24T23:41:00.594Z,71.87
2022-10-24T23:43:28.318Z,71.78
2022-10-24T23:46:00.219Z,71.86
2022-10-24T23:48:35.983Z,72.29
2022-10-24T23:51:05.330Z,72.21
2022-10-24T23:53:36.363Z,72.06
2022-10-24T23:56:04.402Z,72.16
2022-10-24T23:58:31.906Z,72.17
